Terminal Aerodrome Forecast
Issued by NWS Cleveland, OH

Home | Current Version | Previous Version | Text Only | Print | Product List | Glossary On
Versions: 1 2 3 4 5 6 7 8 9 10 11 12 13 14 15 16 17
000
FTUS41 KCLE 052000 AAA
TAFYNG
TAF AMD
KYNG 052040Z 0521/0618 VRB04KT 6SM HZ SCT025 OVC080
      TEMPO 0521/0601 2SM -SHRA BR OVC025
     FM060100 VRB02KT 4SM BR BKN015 OVC035
      TEMPO 0609/0613 1SM BR
     FM061600 27005KT 5SM HZ BKN045=

USA.gov is the U.S. government's official web portal to all federal, state and local government web resources and services.